Time;durP1;ratioP1;P1;durP2;ratioP2;P2;SDS_P1;SDS_P2;PMS_P1;PMS_P2;Temp;Humidity;BMP_temperature;BMP_pressure;BME280_temperature;BME280_humidity;BME280_pressure;Samples;Min_cycle;Max_cycle;Signal;HPM_P1;HPM_P2
2022/06/07 00:01:00;;;;;;;8.00;3.38;;;;;;;-144.47;60.47;53360.63;5032582;28;20025;-70
2022/06/07 00:03:26;;;;;;;3.92;2.28;;;;;;;-144.47;59.95;53338.75;5029267;28;20029;-68
2022/06/07 00:05:51;;;;;;;7.55;2.60;;;;;;;-144.47;59.55;53303.00;5034149;28;20399;-67
2022/06/07 00:08:18;;;;;;;13.70;2.85;;;;;;;-144.47;58.38;53281.16;5034216;28;20029;-68
2022/06/07 00:10:45;;;;;;;4.13;2.47;;;;;;;-144.47;58.28;53330.81;5029017;28;20036;-66
2022/06/07 00:13:11;;;;;;;6.60;2.40;;;;;;;-144.47;57.99;53293.06;5026819;28;20025;-69
2022/06/07 00:15:38;;;;;;;6.38;2.80;;;;;;;-144.47;58.22;53340.75;5027826;28;20062;-67
2022/06/07 00:18:03;;;;;;;5.03;2.70;;;;;;;-144.47;58.86;53305.00;5028054;28;20112;-66
2022/06/07 00:20:29;;;;;;;8.68;2.85;;;;;;;-144.47;58.84;53299.03;5026937;28;20454;-68
2022/06/07 00:22:55;;;;;;;7.78;3.25;;;;;;;-144.47;59.32;53330.81;5026829;28;20029;-67
2022/06/07 00:25:21;;;;;;;10.73;3.38;;;;;;;-144.47;59.11;53332.81;5026908;28;20022;-68
2022/06/07 00:27:47;;;;;;;6.63;3.40;;;;;;;-144.47;58.99;53303.00;5027141;28;20113;-68
2022/06/07 00:30:14;;;;;;;5.63;3.28;;;;;;;-144.47;58.82;53316.91;5026376;28;20099;-65
2022/06/07 00:32:40;;;;;;;5.47;3.15;;;;;;;-144.47;58.98;53322.88;5009006;28;20459;-68
2022/06/07 00:35:06;;;;;;;6.72;3.10;;;;;;;-144.47;59.26;53312.94;5027312;28;20038;-67
2022/06/07 00:37:32;;;;;;;5.80;2.95;;;;;;;-144.47;59.05;53306.97;5027375;28;20490;-67
2022/06/07 00:39:57;;;;;;;7.90;3.10;;;;;;;-144.47;59.33;53312.94;5026497;28;20033;-68
2022/06/07 00:42:23;;;;;;;8.00;3.10;;;;;;;-144.47;59.07;53354.66;5027490;28;20032;-66
2022/06/07 00:44:48;;;;;;;6.90;2.85;;;;;;;-144.47;59.02;53316.91;5027584;28;20083;-69
2022/06/07 00:47:23;;;;;;;7.50;2.95;;;;;;;-144.47;59.23;53303.00;5027146;28;20120;-66
2022/06/07 00:49:51;;;;;;;5.28;3.13;;;;;;;-144.47;59.45;53301.03;5008540;28;20487;-68
2022/06/07 00:52:19;;;;;;;6.10;2.85;;;;;;;-144.47;59.51;53299.03;5023582;28;20051;-67
2022/06/07 00:54:44;;;;;;;5.00;2.73;;;;;;;-144.47;59.37;53287.13;5009095;28;20032;-67
2022/06/07 00:57:10;;;;;;;7.72;2.67;;;;;;;-144.47;59.56;53324.84;5012688;28;20025;-69
2022/06/07 00:59:37;;;;;;;8.38;3.67;;;;;;;-144.47;59.64;53289.09;5030322;28;20224;-68
2022/06/07 01:02:03;;;;;;;6.35;3.00;;;;;;;-144.47;59.92;53336.78;5030412;28;20029;-68
2022/06/07 01:04:28;;;;;;;9.18;3.40;;;;;;;-144.47;59.93;53273.22;5030709;28;20086;-69
2022/06/07 01:12:24;;;;;;;4.65;2.70;;;;;;;-144.47;60.19;53326.84;5030613;28;20072;-68
2022/06/07 01:14:49;;;;;;;6.00;3.20;;;;;;;-144.47;60.16;53340.75;5013780;28;20049;-67
2022/06/07 01:17:16;;;;;;;7.75;3.00;;;;;;;-144.47;60.84;53308.97;5030455;28;20094;-69
2022/06/07 01:19:41;;;;;;;7.85;3.00;;;;;;;-144.47;60.68;53334.78;5030214;28;20029;-68
2022/06/07 01:22:06;;;;;;;6.15;3.00;;;;;;;-144.47;61.14;53324.84;5030350;28;20072;-70
2022/06/07 01:24:32;;;;;;;6.28;2.70;;;;;;;-144.47;61.19;53324.84;5030750;28;20025;-68
2022/06/07 01:26:57;;;;;;;4.78;2.55;;;;;;;-144.47;61.49;53326.84;5029890;28;20124;-67
2022/06/07 01:29:23;;;;;;;7.97;3.38;;;;;;;-144.47;61.35;53338.75;5029565;28;20614;-69
2022/06/07 01:31:48;;;;;;;7.55;3.00;;;;;;;-144.47;61.36;53310.94;5029564;28;20033;-65
2022/06/07 01:34:15;;;;;;;7.75;3.28;;;;;;;-144.47;61.39;53344.72;5030285;28;20053;-68
2022/06/07 01:36:40;;;;;;;4.63;2.65;;;;;;;-144.47;61.81;53338.75;5025923;28;20033;-68
2022/06/07 01:41:55;;;;;;;6.30;3.22;;;;;;;-144.47;62.23;53328.81;5030166;28;20108;-68
2022/06/07 01:44:29;;;;;;;7.90;3.05;;;;;;;-144.47;62.48;53342.72;5031058;28;20053;-68
2022/06/07 01:46:56;;;;;;;7.25;2.67;;;;;;;-144.47;62.51;53322.88;5029900;28;20378;-69
2022/06/07 01:49:25;;;;;;;6.45;2.78;;;;;;;-144.47;62.51;53338.75;5029936;28;20025;-66
2022/06/07 01:51:52;;;;;;;9.55;3.55;;;;;;;-144.47;62.77;53336.78;5029221;28;20139;-66
2022/06/07 01:54:18;;;;;;;6.03;3.08;;;;;;;-144.47;62.86;53332.81;5027436;28;20105;-67
2022/06/07 01:56:43;;;;;;;6.47;3.08;;;;;;;-144.47;63.17;53328.81;5027363;28;20074;-66
2022/06/07 01:59:09;;;;;;;12.63;3.33;;;;;;;-144.47;63.18;53356.63;5028787;28;20390;-68
2022/06/07 02:01:36;;;;;;;8.90;3.20;;;;;;;-144.47;63.21;53316.91;5029488;28;20132;-71
2022/06/07 02:04:03;;;;;;;9.95;3.60;;;;;;;-144.47;62.99;53336.78;5012027;28;20022;-66
2022/06/07 02:06:29;;;;;;;6.15;3.20;;;;;;;-144.47;63.19;53316.91;5028634;28;20032;-67
2022/06/07 02:08:54;;;;;;;9.43;3.85;;;;;;;-144.47;63.21;53356.63;5029130;28;20021;-66
2022/06/07 02:11:22;;;;;;;8.75;3.60;;;;;;;-144.47;63.04;53344.72;5029180;28;20226;-67
2022/06/07 02:13:48;;;;;;;10.18;3.50;;;;;;;-144.47;63.28;53342.72;5029740;28;20029;-69
2022/06/07 02:16:14;;;;;;;6.60;3.22;;;;;;;-144.47;63.03;53328.81;5029454;28;20351;-67
2022/06/07 02:18:40;;;;;;;5.45;3.13;;;;;;;-144.47;63.01;53370.53;5029714;28;20048;-69
2022/06/07 02:21:07;;;;;;;9.02;3.75;;;;;;;-144.47;63.15;53332.81;5029703;28;20443;-67
2022/06/07 02:23:34;;;;;;;8.52;3.80;;;;;;;-144.47;63.33;53344.72;5029782;28;20029;-68
2022/06/07 02:26:04;;;;;;;5.85;3.15;;;;;;;-144.47;63.08;53342.72;5029663;28;20022;-67
2022/06/07 02:28:34;;;;;;;11.93;5.53;;;;;;;-144.47;62.97;53316.91;5011666;28;20021;-68
2022/06/07 02:31:00;;;;;;;6.72;3.53;;;;;;;-144.47;62.41;53322.88;5029528;28;20541;-68
2022/06/07 02:33:27;;;;;;;7.57;3.42;;;;;;;-144.47;62.44;53348.69;5030040;28;20029;-68
2022/06/07 02:35:53;;;;;;;7.53;3.60;;;;;;;-144.47;62.33;53332.81;5029834;28;20095;-68
2022/06/07 02:38:21;;;;;;;10.27;4.38;;;;;;;-144.47;62.07;53320.88;5028966;28;20029;-69
2022/06/07 02:40:48;;;;;;;8.02;3.65;;;;;;;-144.47;61.59;53332.81;5028537;28;20053;-69
2022/06/07 02:43:14;;;;;;;8.90;3.10;;;;;;;-144.47;61.53;53352.66;5028494;28;20021;-69
2022/06/07 02:45:39;;;;;;;5.70;3.40;;;;;;;-144.47;61.82;53340.75;5029462;28;20017;-68
2022/06/07 02:48:06;;;;;;;8.70;4.10;;;;;;;-144.47;61.39;53340.75;5027588;28;20028;-66
2022/06/07 02:50:31;;;;;;;11.25;4.07;;;;;;;-144.47;61.44;53326.84;5027144;28;20108;-67
2022/06/07 02:52:57;;;;;;;8.45;3.95;;;;;;;-144.47;61.22;53326.84;5025460;28;20096;-66
2022/06/07 02:55:22;;;;;;;6.95;3.25;;;;;;;-144.47;61.38;53340.75;5029032;28;20025;-68
2022/06/07 02:57:48;;;;;;;13.05;3.72;;;;;;;-144.47;61.19;53348.69;5010107;28;20116;-67
2022/06/07 03:00:15;;;;;;;8.93;4.63;;;;;;;-144.47;61.41;53338.75;5028591;28;20044;-67
2022/06/07 03:02:40;;;;;;;10.13;4.65;;;;;;;-144.47;61.43;53366.56;5026735;28;20438;-68
2022/06/07 03:05:06;;;;;;;7.22;3.97;;;;;;;-144.47;61.37;53320.88;5025968;28;20517;-67
2022/06/07 03:07:32;;;;;;;7.70;4.70;;;;;;;-144.47;61.46;53312.94;5011052;28;20458;-69
2022/06/07 03:09:57;;;;;;;10.23;5.05;;;;;;;-144.47;61.34;53314.91;5028202;28;20083;-69
2022/06/07 03:12:22;;;;;;;11.75;5.55;;;;;;;-144.47;61.32;53316.91;5011457;28;20387;-69
2022/06/07 03:14:48;;;;;;;7.00;4.47;;;;;;;-144.47;61.62;53326.84;5030871;28;20420;-69
2022/06/07 03:17:13;;;;;;;7.88;4.35;;;;;;;-144.47;61.44;53320.88;5027845;28;20030;-67
2022/06/07 03:19:39;;;;;;;12.32;6.13;;;;;;;-144.47;61.79;53356.63;5027929;28;20150;-68
2022/06/07 03:22:07;;;;;;;8.88;4.95;;;;;;;-144.47;61.74;53332.81;5026649;28;20163;-67
2022/06/07 03:24:33;;;;;;;12.02;5.13;;;;;;;-144.47;61.64;53340.75;5010051;28;20479;-67
2022/06/07 03:26:59;;;;;;;10.48;5.10;;;;;;;-144.47;61.85;53342.72;5027040;28;20082;-69
2022/06/07 03:29:24;;;;;;;7.53;4.60;;;;;;;-144.47;61.71;53362.59;5026387;28;20045;-67
2022/06/07 03:31:50;;;;;;;10.75;5.10;;;;;;;-144.47;61.85;53332.81;5026598;28;20384;-68
2022/06/07 03:34:15;;;;;;;7.88;4.25;;;;;;;-144.47;61.64;53334.78;5028425;28;20079;-67
2022/06/07 03:36:41;;;;;;;7.90;4.68;;;;;;;-144.47;61.77;53340.75;5027875;28;20021;-68
2022/06/07 03:39:08;;;;;;;11.15;4.47;;;;;;;-144.47;61.85;53314.91;5027486;28;20110;-67
2022/06/07 03:41:36;;;;;;;12.13;4.93;;;;;;;-144.47;62.27;53356.63;5026523;28;20219;-67
2022/06/07 03:44:03;;;;;;;8.33;4.30;;;;;;;-144.47;61.83;53334.78;5027682;28;20036;-68
2022/06/07 03:46:32;;;;;;;8.32;4.20;;;;;;;-144.47;62.00;53344.72;5025006;28;20029;-66
2022/06/07 03:48:57;;;;;;;;;;;;;;;-144.47;62.63;53342.72;5026960;28;20550;-66
2022/06/07 03:51:25;;;;;;;13.30;5.45;;;;;;;-144.47;62.79;53312.94;5028262;28;20003;-66
2022/06/07 03:53:51;;;;;;;7.95;4.72;;;;;;;-144.47;63.18;53342.72;5027825;28;20460;-68
2022/06/07 03:56:18;;;;;;;8.30;5.03;;;;;;;-144.47;63.28;53362.59;5028081;28;20047;-66
2022/06/07 03:58:43;;;;;;;8.98;5.25;;;;;;;-144.47;63.18;53338.75;5026184;28;20051;-67
2022/06/07 04:01:15;;;;;;;11.80;6.35;;;;;;;-144.47;62.78;53364.59;5027672;28;20049;-67
2022/06/07 04:03:45;;;;;;;9.98;5.13;;;;;;;-144.47;63.13;53344.72;5023228;22;20057;-70
2022/06/07 04:06:21;;;;;;;10.75;5.85;;;;;;;-144.47;62.78;53352.66;5008819;28;20104;-68
2022/06/07 04:08:47;;;;;;;9.65;5.40;;;;;;;-144.47;63.09;53334.78;5008756;28;20411;-66
2022/06/07 04:11:14;;;;;;;9.00;5.68;;;;;;;-144.47;62.77;53348.69;5009279;28;20036;-69
2022/06/07 04:13:39;;;;;;;8.75;5.05;;;;;;;-144.47;62.84;53358.63;5007662;28;20038;-66
2022/06/07 04:16:09;;;;;;;11.48;6.00;;;;;;;-144.47;62.77;53346.72;5008456;28;20098;-69
2022/06/07 04:18:35;;;;;;;9.57;5.13;;;;;;;-144.47;62.91;53370.53;5008858;28;20036;-68
2022/06/07 04:21:00;;;;;;;10.15;5.88;;;;;;;-144.47;62.88;53328.81;4991560;28;20030;-67
2022/06/07 04:24:04;;;;;;;13.32;6.03;;;;;;;-144.47;62.82;53326.84;5007615;28;20034;-73
2022/06/07 04:26:30;;;;;;;12.57;5.25;;;;;;;-144.47;62.68;53348.69;5001769;28;20068;-70
2022/06/07 04:28:57;;;;;;;10.73;4.97;;;;;;;-144.47;62.21;53344.72;5007431;28;20029;-69
2022/06/07 04:31:24;;;;;;;13.65;4.68;;;;;;;-144.47;61.52;53358.63;4993743;28;20037;-65
2022/06/07 04:33:50;;;;;;;9.75;4.50;;;;;;;-144.47;61.48;53360.63;5012263;28;20080;-67
2022/06/07 04:36:19;;;;;;;15.32;4.68;;;;;;;-144.47;60.96;53346.72;4994651;28;20030;-68
2022/06/07 04:38:45;;;;;;;;;;;;;;;-144.47;60.49;53366.56;5012645;28;20045;-68
2022/06/07 04:41:15;;;;;;;9.88;4.22;;;;;;;-144.47;59.91;53358.63;5012433;28;20306;-69
2022/06/07 04:43:40;;;;;;;10.10;5.25;;;;;;;-144.47;60.18;53322.88;4993467;28;20053;-69
2022/06/07 04:46:09;;;;;;;15.13;4.47;;;;;;;-144.47;59.71;53356.63;5012086;28;20065;-70
2022/06/07 04:48:36;;;;;;;8.05;4.38;;;;;;;-144.47;59.63;53328.81;5011019;28;20467;-68
2022/06/07 04:51:27;;;;;;;14.90;4.20;;;;;;;-144.47;59.38;53344.72;5007927;28;20545;-67
2022/06/07 04:53:54;;;;;;;10.30;4.72;;;;;;;-144.47;58.69;53306.97;5011076;28;20504;-69
2022/06/07 04:56:28;;;;;;;7.70;3.35;;;;;;;-144.47;58.36;53348.69;5011121;28;20079;-67
2022/06/07 04:58:54;;;;;;;7.07;3.17;;;;;;;-144.47;57.66;53346.72;5008848;28;20048;-70
2022/06/07 05:01:26;;;;;;;8.98;3.67;;;;;;;-144.47;57.39;53334.78;5011533;28;20508;-68
2022/06/07 05:03:53;;;;;;;12.30;3.53;;;;;;;-144.47;57.11;53340.75;5009435;28;20468;-68
2022/06/07 05:06:36;;;;;;;5.85;3.33;;;;;;;-144.47;56.85;53308.97;5011804;28;20053;-68
2022/06/07 05:09:10;;;;;;;6.57;3.22;;;;;;;-144.47;56.64;53299.03;5010826;28;20064;-68
2022/06/07 05:11:35;;;;;;;7.22;3.67;;;;;;;-144.47;56.60;53322.88;5012347;28;20030;-69
2022/06/07 05:14:03;;;;;;;5.60;3.08;;;;;;;-144.47;56.45;53352.66;4992874;28;20557;-68
2022/06/07 05:16:30;;;;;;;5.22;2.80;;;;;;;-144.47;55.00;53338.75;5010421;28;20392;-70
2022/06/07 05:18:56;;;;;;;10.60;2.78;;;;;;;-144.47;54.75;53344.72;5012371;28;20164;-70
2022/06/07 05:21:22;;;;;;;6.68;2.75;;;;;;;-144.47;54.96;53342.72;5012094;28;20513;-66
2022/06/07 05:23:48;;;;;;;5.88;2.60;;;;;;;-144.47;54.64;53279.16;5010364;28;20060;-66
2022/06/07 05:26:23;;;;;;;6.07;2.50;;;;;;;-144.47;53.66;53312.94;5011776;28;20079;-68
2022/06/07 05:28:50;;;;;;;8.00;2.55;;;;;;;-144.47;53.63;53273.22;5010458;28;20032;-70
2022/06/07 05:31:16;;;;;;;5.97;2.55;;;;;;;-144.47;53.57;53306.97;5011713;28;20101;-67
2022/06/07 05:33:41;;;;;;;8.48;2.95;;;;;;;-144.47;53.37;53287.13;5012130;28;20050;-70
2022/06/07 05:36:07;;;;;;;10.73;3.00;;;;;;;-144.47;51.80;53269.22;5010060;28;20127;-69
2022/06/07 05:38:33;;;;;;;11.55;2.50;;;;;;;-144.47;52.17;53277.19;5010723;28;20026;-68
2022/06/07 05:40:58;;;;;;;6.40;2.42;;;;;;;-144.47;50.67;53326.84;4994229;28;20101;-69
2022/06/07 05:43:24;;;;;;;3.65;1.83;;;;;;;-144.47;50.46;53269.22;5010452;28;20108;-70
2022/06/07 05:45:51;;;;;;;4.35;1.90;;;;;;;-144.47;50.92;53273.22;5011639;28;20088;-67
2022/06/07 05:48:17;;;;;;;8.50;4.05;;;;;;;-144.47;54.92;53316.91;5007350;28;20354;-68
2022/06/07 05:50:44;;;;;;;7.35;4.30;;;;;;;-144.47;56.86;53356.63;5010441;28;20534;-68
2022/06/07 05:53:12;;;;;;;14.82;4.70;;;;;;;-144.47;57.95;53306.97;5011283;28;20533;-68
2022/06/07 05:55:37;;;;;;;8.80;4.00;;;;;;;-144.47;58.67;53322.88;5012835;28;20120;-67
2022/06/07 05:58:03;;;;;;;14.00;4.07;;;;;;;-144.47;59.15;53291.09;5008808;28;20113;-71
2022/06/07 06:00:30;;;;;;;15.32;5.65;;;;;;;-144.47;59.69;53344.72;4990572;28;20061;-69
2022/06/07 06:02:55;;;;;;;13.27;4.45;;;;;;;-144.47;59.67;53291.09;5009593;28;20034;-68
2022/06/07 06:05:21;;;;;;;10.80;4.35;;;;;;;-144.47;59.90;53352.66;5010642;28;20014;-70
2022/06/07 06:10:30;;;;;;;12.32;4.50;;;;;;;-144.47;59.92;53320.88;4998207;28;20052;-68
2022/06/07 06:12:55;;;;;;;10.82;4.30;;;;;;;-144.47;59.30;53328.81;5008829;28;20476;-70
2022/06/07 06:15:21;;;;;;;17.23;5.88;;;;;;;-144.47;59.38;53297.03;5009405;28;20504;-67
2022/06/07 06:17:47;;;;;;;10.50;4.68;;;;;;;-144.47;59.33;53324.84;5010536;28;20060;-66
2022/06/07 06:20:12;;;;;;;14.07;4.82;;;;;;;-144.47;59.40;53308.97;5009883;28;20025;-69
2022/06/07 06:22:38;;;;;;;8.10;4.18;;;;;;;-144.47;59.19;53297.03;5011361;28;20022;-68
2022/06/07 06:25:06;;;;;;;12.38;4.13;;;;;;;-144.47;58.90;53320.88;5009941;28;20109;-68
2022/06/07 06:27:33;;;;;;;12.02;4.70;;;;;;;-144.47;58.93;53316.91;4992375;28;20510;-68
2022/06/07 06:29:59;;;;;;;13.70;5.10;;;;;;;-144.47;58.88;53338.75;5008536;28;20040;-67
2022/06/07 06:32:24;;;;;;;7.93;4.10;;;;;;;-144.47;58.49;53340.75;5009751;28;20095;-67
2022/06/07 06:34:50;;;;;;;9.98;3.92;;;;;;;-144.47;57.52;53306.97;5002719;28;20046;-69
2022/06/07 06:37:15;;;;;;;11.52;4.28;;;;;;;-144.47;56.94;53310.94;5008740;28;20037;-69
2022/06/07 06:39:41;;;;;;;12.73;4.10;;;;;;;-144.47;56.08;53348.69;5007891;28;20033;-71
2022/06/07 06:42:06;;;;;;;9.02;4.00;;;;;;;-144.47;56.24;53354.66;5007903;28;20435;-70
2022/06/07 06:44:32;;;;;;;7.40;3.05;;;;;;;-144.47;53.34;53344.72;4991948;28;20014;-68
2022/06/07 06:46:58;;;;;;;8.65;2.95;;;;;;;-144.47;53.00;53295.06;5008918;28;20034;-70
2022/06/07 06:49:24;;;;;;;8.18;3.55;;;;;;;-144.47;53.71;53340.75;5002708;28;20025;-68
2022/06/07 06:51:50;;;;;;;8.10;4.43;;;;;;;-144.47;53.82;53287.13;5005108;28;20032;-70
2022/06/07 06:54:17;;;;;;;11.20;3.28;;;;;;;-144.47;52.39;53320.88;5008383;28;20072;-67
2022/06/07 06:56:43;;;;;;;8.07;3.55;;;;;;;-144.47;51.64;53289.09;5008433;28;20087;-70
2022/06/07 06:59:08;;;;;;;11.32;3.72;;;;;;;-144.47;51.05;53267.25;5006275;28;20022;-70
2022/06/07 07:01:38;;;;;;;6.85;2.45;;;;;;;-144.47;48.54;53285.13;5008163;28;20041;-67
2022/06/07 07:04:07;;;;;;;8.27;2.78;;;;;;;-144.47;49.56;53293.06;5009626;28;20104;-68
2022/06/07 07:06:32;;;;;;;;;;;;;;;-144.47;50.25;53308.97;5009908;28;20024;-70
2022/06/07 07:08:58;;;;;;;5.22;2.25;;;;;;;-144.47;46.87;53291.09;5008783;28;19909;-68
2022/06/07 07:11:31;;;;;;;5.25;1.75;;;;;;;-144.47;46.98;53269.22;5008666;28;20541;-66
2022/06/07 07:13:58;;;;;;;4.25;1.88;;;;;;;-144.47;47.37;53247.38;4991169;28;20125;-67
2022/06/07 07:16:27;;;;;;;11.52;2.25;;;;;;;-144.47;47.24;53314.91;5009499;28;20025;-69
2022/06/07 07:18:53;;;;;;;9.55;2.15;;;;;;;-144.47;47.19;53277.19;4991462;28;20026;-70
2022/06/07 07:21:28;;;;;;;6.10;2.33;;;;;;;-144.47;46.42;53253.34;5009384;28;20399;-67
2022/06/07 07:23:55;;;;;;;5.82;1.80;;;;;;;-144.47;46.64;53277.19;5009528;28;20341;-70
2022/06/07 07:26:23;;;;;;;5.97;2.33;;;;;;;-144.47;46.56;53229.50;5009077;28;20116;-70
2022/06/07 07:28:49;;;;;;;4.20;1.50;;;;;;;-144.47;44.59;53273.22;4989620;28;20140;-67
2022/06/07 07:31:22;;;;;;;6.32;1.98;;;;;;;-144.47;44.54;53245.41;5008813;28;20026;-74
2022/06/07 07:33:47;;;;;;;9.07;2.10;;;;;;;-144.47;45.03;53259.31;5008531;28;20212;-66
2022/06/07 07:36:13;;;;;;;5.80;2.03;;;;;;;-144.47;44.64;53239.44;5004412;28;20510;-67
2022/06/07 07:38:40;;;;;;;4.60;1.63;;;;;;;-144.47;44.56;53293.06;5009232;28;20017;-67
2022/06/07 07:41:16;;;;;;;10.88;1.45;;;;;;;-144.47;44.37;53241.44;5006803;28;20017;-67
2022/06/07 07:43:42;;;;;;;4.85;1.85;;;;;;;-144.47;45.01;53213.63;5005402;28;20029;-68
2022/06/07 07:46:08;;;;;;;2.70;1.40;;;;;;;-144.47;43.98;53259.31;5009278;28;20026;-69
2022/06/07 07:48:34;;;;;;;12.88;1.98;;;;;;;-144.47;44.11;53239.44;5008384;28;20033;-68
2022/06/07 07:51:06;;;;;;;6.05;1.42;;;;;;;-144.47;42.57;53253.34;5008927;28;20034;-70
2022/06/07 07:53:32;;;;;;;4.43;1.65;;;;;;;-144.47;43.79;53235.47;5008970;28;20052;-69
2022/06/07 07:55:58;;;;;;;4.18;1.65;;;;;;;-144.47;43.59;53249.38;5009148;28;20113;-70
2022/06/07 07:58:23;;;;;;;4.75;1.40;;;;;;;-144.47;43.54;53245.41;4990062;28;20368;-67
2022/06/07 08:00:50;;;;;;;9.55;1.70;;;;;;;-144.47;42.12;53259.31;5006131;28;20387;-67
2022/06/07 08:03:18;;;;;;;3.65;1.52;;;;;;;-144.47;41.38;53211.63;5007527;28;20057;-70
2022/06/07 08:05:43;;;;;;;5.53;1.40;;;;;;;-144.47;41.83;53219.56;5004923;28;20026;-66
2022/06/07 08:08:10;;;;;;;3.95;1.33;;;;;;;-144.47;41.65;53229.50;4991452;28;20029;-69
2022/06/07 08:10:36;;;;;;;3.55;1.30;;;;;;;-144.47;41.46;53253.34;4984572;28;20032;-69
2022/06/07 08:13:03;;;;;;;9.15;1.63;;;;;;;-144.47;41.74;53257.31;5005230;28;20101;-67
2022/06/07 08:15:31;;;;;;;2.88;1.23;;;;;;;-144.47;41.56;53245.41;5008176;28;20040;-67
2022/06/07 08:17:57;;;;;;;5.30;1.88;;;;;;;-144.47;41.41;53271.22;5007574;28;20517;-68
2022/06/07 08:20:24;;;;;;;3.83;1.70;;;;;;;-144.47;41.61;53233.47;5007269;28;20042;-68
2022/06/07 08:22:51;;;;;;;6.47;1.80;;;;;;;-144.47;42.00;53207.66;5008089;28;20041;-69
2022/06/07 08:25:17;;;;;;;5.43;1.70;;;;;;;-144.47;42.32;53233.47;5009866;28;20049;-68
2022/06/07 08:27:42;;;;;;;4.88;1.92;;;;;;;-144.47;42.52;53239.44;5008593;28;20026;-67
2022/06/07 08:30:08;;;;;;;8.50;2.22;;;;;;;-144.47;42.54;53237.44;4990667;28;20034;-69
2022/06/07 08:32:34;;;;;;;4.95;1.70;;;;;;;-144.47;42.87;53257.31;5007473;28;20491;-69
2022/06/07 08:37:44;;;;;;;3.42;1.75;;;;;;;-144.47;42.92;53253.34;5008760;28;20032;-69
2022/06/07 08:40:20;;;;;;;3.80;1.80;;;;;;;-144.47;42.52;53249.38;5008739;28;20030;-69
2022/06/07 08:42:52;;;;;;;2.75;1.48;;;;;;;-144.47;42.42;53211.63;5005088;28;20062;-69
2022/06/07 08:45:34;;;;;;;4.45;2.05;;;;;;;-144.47;42.46;53249.38;5009158;28;20026;-67
2022/06/07 08:48:04;;;;;;;2.45;1.55;;;;;;;-144.47;42.38;53211.63;5008649;28;20021;-68
2022/06/07 08:50:41;;;;;;;9.40;1.92;;;;;;;-144.47;42.93;53247.38;4990588;28;20317;-67
2022/06/07 08:53:22;;;;;;;12.52;3.53;;;;;;;-144.47;42.43;53257.31;5005668;28;20025;-67
2022/06/07 08:55:58;;;;;;;11.40;1.67;;;;;;;-144.47;41.76;53229.50;5003566;28;20523;-67
2022/06/07 08:58:28;;;;;;;2.45;1.35;;;;;;;-144.47;42.19;53245.41;5007495;28;20074;-68
2022/06/07 09:00:57;;;;;;;5.60;1.77;;;;;;;-144.47;42.07;53209.66;5007507;28;20099;-68
2022/06/07 09:03:31;;;;;;;10.55;1.60;;;;;;;-144.47;41.14;53257.31;5008915;28;20046;-69
2022/06/07 09:06:00;;;;;;;6.18;1.30;;;;;;;-144.47;40.44;53243.41;5008412;28;20364;-67
2022/06/07 09:08:32;;;;;;;;;;;;;;;-144.47;39.26;53271.22;5007880;28;20117;-70
2022/06/07 09:13:47;;;;;;;4.63;1.55;;;;;;;-144.47;39.64;53225.53;5009047;28;20040;-69
2022/06/07 09:16:13;;;;;;;2.88;1.00;;;;;;;-144.47;39.09;53211.63;5010568;28;20109;-71
2022/06/07 09:18:40;;;;;;;2.15;1.13;;;;;;;-144.47;38.15;53235.47;5009646;28;20030;-68
2022/06/07 09:21:17;;;;;;;3.40;1.20;;;;;;;-144.47;37.84;53195.75;5012766;28;20034;-68
2022/06/07 09:23:48;;;;;;;3.63;1.07;;;;;;;-144.47;37.10;53203.69;5012124;28;20030;-67
2022/06/07 09:26:24;;;;;;;8.48;1.10;;;;;;;-144.47;37.40;53229.50;5012711;28;20021;-67
2022/06/07 09:29:07;;;;;;;3.15;1.10;;;;;;;-144.47;37.51;53217.59;4996304;28;20036;-67
2022/06/07 09:31:38;;;;;;;2.15;0.90;;;;;;;-144.47;36.70;53217.59;5011348;28;20061;-68
2022/06/07 09:34:06;;;;;;;5.55;1.10;;;;;;;-144.47;37.47;53211.63;5011547;28;20053;-69
2022/06/07 09:36:43;;;;;;;1.75;1.20;;;;;;;-144.47;37.70;53237.44;5007216;28;20509;-70
2022/06/07 09:39:25;;;;;;;3.03;1.20;;;;;;;-144.47;38.17;53249.38;5008908;28;20488;-68
2022/06/07 09:42:24;;;;;;;6.90;1.50;;;;;;;-144.47;39.26;53247.38;4993082;28;20136;-69
2022/06/07 09:44:57;;;;;;;;;;;;;;;-144.47;39.64;53219.56;5005595;28;20100;-67
2022/06/07 09:47:27;;;;;;;4.53;1.42;;;;;;;-144.47;40.49;53189.78;5009770;28;19916;-69
2022/06/07 09:49:58;;;;;;;6.97;1.63;;;;;;;-144.47;40.69;53199.72;5009684;28;20373;-69
2022/06/07 09:52:41;;;;;;;5.00;1.60;;;;;;;-144.47;40.62;53261.28;5008569;28;20133;-68
2022/06/07 09:55:20;;;;;;;2.70;1.30;;;;;;;-144.47;40.11;53241.44;5009818;28;20034;-70
2022/06/07 09:58:10;;;;;;;2.47;1.20;;;;;;;-144.47;40.23;53231.50;5001919;28;20022;-70
2022/06/07 10:00:46;;;;;;;4.88;2.00;;;;;;;-144.47;40.88;53251.34;4996235;28;20320;-69
2022/06/07 10:06:20;;;;;;;4.20;1.90;;;;;;;-144.47;40.56;53275.19;5028420;28;20049;-67
2022/06/07 10:09:07;;;;;;;8.73;1.70;;;;;;;-144.47;40.49;53231.50;4947475;28;20043;-70
2022/06/07 10:11:32;;;;;;;2.92;1.33;;;;;;;-144.47;39.54;53229.50;5024086;28;20183;-70
2022/06/07 10:14:25;;;;;;;2.38;1.33;;;;;;;-144.47;38.79;53229.50;5046849;28;20040;-69
2022/06/07 10:17:29;;;;;;;4.15;2.00;;;;;;;-144.47;39.12;53217.59;5052647;28;20583;-68
2022/06/07 10:20:03;;;;;;;3.03;1.55;;;;;;;-144.47;39.08;53229.50;5051674;28;20032;-68
2022/06/07 10:22:57;;;;;;;4.00;1.30;;;;;;;-144.47;38.45;53215.59;5034565;28;20349;-70
2022/06/07 10:25:29;;;;;;;4.45;1.27;;;;;;;-144.47;37.71;53259.31;5032802;28;20037;-70
2022/06/07 10:28:15;;;;;;;4.88;1.48;;;;;;;-144.47;38.08;53229.50;5050274;28;20016;-70
2022/06/07 10:31:08;;;;;;;5.03;1.23;;;;;;;-144.47;38.04;53227.53;5050802;28;20076;-68
2022/06/07 10:33:51;;;;;;;4.90;1.52;;;;;;;-144.47;37.17;53211.63;5040612;28;20113;-72
2022/06/07 10:36:31;;;;;;;9.48;2.38;;;;;;;-144.47;37.10;53193.75;5033295;28;20036;-67
2022/06/07 10:39:27;;;;;;;6.55;1.42;;;;;;;-144.47;37.71;53239.44;5038914;28;20065;-68
2022/06/07 10:42:18;;;;;;;3.47;0.90;;;;;;;-144.47;36.95;53223.56;5039296;28;20030;-69
2022/06/07 10:44:48;;;;;;;5.18;1.10;;;;;;;-144.47;35.59;53245.41;5021271;28;20112;-67
2022/06/07 10:47:23;;;;;;;4.50;1.10;;;;;;;-144.47;36.10;53189.78;5046971;28;20029;-70
2022/06/07 10:50:15;;;;;;;2.03;1.02;;;;;;;-144.47;35.98;53243.41;5050531;28;20172;-68
2022/06/07 10:52:55;;;;;;;2.15;1.00;;;;;;;-144.47;34.89;53193.75;5029190;28;20383;-68
2022/06/07 10:55:33;;;;;;;9.23;1.20;;;;;;;-144.47;35.19;53179.84;5048381;28;20101;-68
2022/06/07 10:58:28;;;;;;;3.00;0.90;;;;;;;-144.47;34.93;53209.66;5042576;28;20116;-68
2022/06/07 11:01:14;;;;;;;3.78;1.00;;;;;;;-144.47;34.57;53185.81;5043976;28;20033;-68
2022/06/07 11:03:45;;;;;;;3.17;1.35;;;;;;;-144.47;34.29;53235.47;5049150;28;20029;-68
2022/06/07 11:09:31;;;;;;;4.78;1.00;;;;;;;-144.47;34.24;53201.69;5049215;28;20072;-69
2022/06/07 11:12:01;;;;;;;4.88;1.20;;;;;;;-144.47;34.46;53199.72;5028235;28;20034;-68
2022/06/07 11:14:59;;;;;;;2.30;1.20;;;;;;;-144.47;34.29;53211.63;5032815;28;20079;-70
2022/06/07 11:17:43;;;;;;;5.97;1.30;;;;;;;-144.47;34.37;53225.53;5052389;28;20029;-67
2022/06/07 11:20:17;;;;;;;3.08;1.17;;;;;;;-144.47;34.59;53221.56;5051025;28;20036;-66
2022/06/07 11:23:01;;;;;;;11.57;1.40;;;;;;;-144.47;35.19;53199.72;5064309;28;20040;-67
2022/06/07 11:25:37;;;;;;;3.50;1.40;;;;;;;-144.47;35.54;53199.72;5050600;28;20445;-70
2022/06/07 11:28:10;;;;;;;2.95;1.33;;;;;;;-144.47;35.41;53191.78;5049372;28;20024;-69
2022/06/07 11:30:37;;;;;;;3.13;1.10;;;;;;;-144.47;34.36;53205.66;5049816;28;20025;-68
2022/06/07 11:33:25;;;;;;;8.90;1.05;;;;;;;-144.47;34.71;53183.81;5048851;28;20105;-68
2022/06/07 11:36:09;;;;;;;2.28;1.48;;;;;;;-144.47;34.24;53213.63;5047636;28;20316;-71
2022/06/07 11:38:57;;;;;;;5.18;1.20;;;;;;;-144.47;34.79;53191.78;5047601;28;20275;-72
2022/06/07 11:41:37;;;;;;;5.30;1.10;;;;;;;-144.47;34.85;53211.63;5045472;28;20045;-68
2022/06/07 11:44:08;;;;;;;3.42;1.20;;;;;;;-144.47;34.61;53211.63;5047933;28;20040;-68
2022/06/07 11:46:33;;;;;;;5.30;1.40;;;;;;;-144.47;34.88;53241.44;5043544;28;20025;-68
2022/06/07 11:49:17;;;;;;;6.10;1.17;;;;;;;-144.47;35.27;53217.59;5046935;28;20077;-69
2022/06/07 11:51:50;;;;;;;4.30;1.13;;;;;;;-144.47;35.33;53201.69;5045380;28;20020;-71